sensor_id;sensor_type;location;lat;lon;timestamp;pressure;altitude;pressure_sealevel;temperature;humidity
14612;BME280;7392;52.078;11.650;2023-02-25T00:01:12;98948.38;;;2.46;100.00
14612;BME280;7392;52.078;11.650;2023-02-25T00:03:41;98937.91;;;2.49;100.00
14612;BME280;7392;52.078;11.650;2023-02-25T00:06:12;98940.53;;;2.47;100.00
14612;BME280;7392;52.078;11.650;2023-02-25T00:08:44;98934.44;;;2.48;100.00
14612;BME280;7392;52.078;11.650;2023-02-25T00:11:14;98932.66;;;2.49;100.00
14612;BME280;7392;52.078;11.650;2023-02-25T00:13:44;98939.66;;;2.48;100.00
14612;BME280;7392;52.078;11.650;2023-02-25T00:16:13;98943.19;;;2.53;100.00
14612;BME280;7392;52.078;11.650;2023-02-25T00:18:41;98937.94;;;2.53;100.00
14612;BME280;7392;52.078;11.650;2023-02-25T00:21:15;98936.19;;;2.54;100.00
14612;BME280;7392;52.078;11.650;2023-02-25T00:23:44;98930.09;;;2.56;100.00
14612;BME280;7392;52.078;11.650;2023-02-25T00:26:14;98930.94;;;2.55;100.00
14612;BME280;7392;52.078;11.650;2023-02-25T00:28:43;98936.19;;;2.54;100.00
14612;BME280;7392;52.078;11.650;2023-02-25T00:31:12;98941.44;;;2.61;100.00
14612;BME280;7392;52.078;11.650;2023-02-25T00:33:41;98944.91;;;2.59;100.00
14612;BME280;7392;52.078;11.650;2023-02-25T00:36:11;98942.31;;;2.59;100.00
14612;BME280;7392;52.078;11.650;2023-02-25T00:38:41;98951.03;;;2.58;100.00
14612;BME280;7392;52.078;11.650;2023-02-25T00:41:17;98958.91;;;2.59;100.00
14612;BME280;7392;52.078;11.650;2023-02-25T00:43:49;98951.03;;;2.58;100.00
14612;BME280;7392;52.078;11.650;2023-02-25T00:46:18;98961.50;;;2.59;100.00
14612;BME280;7392;52.078;11.650;2023-02-25T00:48:46;98967.66;;;2.58;100.00
14612;BME280;7392;52.078;11.650;2023-02-25T00:51:16;98967.66;;;2.58;100.00
14612;BME280;7392;52.078;11.650;2023-02-25T00:53:46;98962.41;;;2.57;100.00
14612;BME280;7392;52.078;11.650;2023-02-25T00:56:15;98970.25;;;2.55;100.00
14612;BME280;7392;52.078;11.650;2023-02-25T00:58:44;98961.53;;;2.53;100.00
14612;BME280;7392;52.078;11.650;2023-02-25T01:01:17;98960.66;;;2.51;100.00
14612;BME280;7392;52.078;11.650;2023-02-25T01:03:46;98958.03;;;2.50;100.00
14612;BME280;7392;52.078;11.650;2023-02-25T01:06:14;98964.13;;;2.50;100.00
14612;BME280;7392;52.078;11.650;2023-02-25T01:08:43;98967.59;;;2.48;100.00
14612;BME280;7392;52.078;11.650;2023-02-25T01:11:15;98971.97;;;2.49;100.00
14612;BME280;7392;52.078;11.650;2023-02-25T01:13:47;98968.50;;;2.48;100.00
14612;BME280;7392;52.078;11.650;2023-02-25T01:16:17;98971.97;;;2.47;100.00
14612;BME280;7392;52.078;11.650;2023-02-25T01:18:47;98963.25;;;2.45;100.00
14612;BME280;7392;52.078;11.650;2023-02-25T01:21:15;98965.84;;;2.43;100.00
14612;BME280;7392;52.078;11.650;2023-02-25T01:23:44;98967.63;;;2.45;100.00
14612;BME280;7392;52.078;11.650;2023-02-25T01:26:14;98968.47;;;2.43;100.00
14612;BME280;7392;52.078;11.650;2023-02-25T01:28:42;98983.34;;;2.43;100.00
14612;BME280;7392;52.078;11.650;2023-02-25T01:31:15;98978.94;;;2.42;100.00
14612;BME280;7392;52.078;11.650;2023-02-25T01:33:44;98984.19;;;2.42;100.00
14612;BME280;7392;52.078;11.650;2023-02-25T01:36:12;98984.19;;;2.40;100.00
14612;BME280;7392;52.078;11.650;2023-02-25T01:38:40;98987.69;;;2.39;100.00
14612;BME280;7392;52.078;11.650;2023-02-25T01:41:08;98991.16;;;2.37;100.00
14612;BME280;7392;52.078;11.650;2023-02-25T01:43:38;98990.28;;;2.35;100.00
14612;BME280;7392;52.078;11.650;2023-02-25T01:46:06;98984.19;;;2.33;100.00
14612;BME280;7392;52.078;11.650;2023-02-25T01:48:37;98997.28;;;2.31;100.00
14612;BME280;7392;52.078;11.650;2023-02-25T01:51:08;99000.75;;;2.30;100.00
14612;BME280;7392;52.078;11.650;2023-02-25T01:53:41;98999.03;;;2.29;100.00
14612;BME280;7392;52.078;11.650;2023-02-25T01:56:12;98992.88;;;2.29;100.00
14612;BME280;7392;52.078;11.650;2023-02-25T01:58:43;99007.72;;;2.27;100.00
14612;BME280;7392;52.078;11.650;2023-02-25T02:01:13;99009.47;;;2.26;100.00
14612;BME280;7392;52.078;11.650;2023-02-25T02:03:44;99005.09;;;2.23;100.00
14612;BME280;7392;52.078;11.650;2023-02-25T02:06:15;99016.47;;;2.26;100.00
14612;BME280;7392;52.078;11.650;2023-02-25T02:08:47;99000.75;;;2.24;100.00
14612;BME280;7392;52.078;11.650;2023-02-25T02:11:16;99008.59;;;2.21;100.00
14612;BME280;7392;52.078;11.650;2023-02-25T02:13:48;99004.19;;;2.20;100.00
14612;BME280;7392;52.078;11.650;2023-02-25T02:16:29;99001.56;;;2.17;100.00
14612;BME280;7392;52.078;11.650;2023-02-25T02:19:11;98999.84;;;2.16;100.00
14612;BME280;7392;52.078;11.650;2023-02-25T02:21:48;98998.06;;;2.15;100.00
14612;BME280;7392;52.078;11.650;2023-02-25T02:24:42;99000.69;;;2.13;100.00
14612;BME280;7392;52.078;11.650;2023-02-25T02:27:19;99004.19;;;2.11;100.00
14612;BME280;7392;52.078;11.650;2023-02-25T02:30:11;99016.38;;;2.12;100.00
14612;BME280;7392;52.078;11.650;2023-02-25T02:32:45;99005.03;;;2.10;100.00
14612;BME280;7392;52.078;11.650;2023-02-25T02:35:20;99024.25;;;2.09;100.00
14612;BME280;7392;52.078;11.650;2023-02-25T02:37:56;99020.75;;;2.08;100.00
14612;BME280;7392;52.078;11.650;2023-02-25T02:40:38;99016.38;;;2.05;100.00
14612;BME280;7392;52.078;11.650;2023-02-25T02:43:16;99017.22;;;2.01;100.00
14612;BME280;7392;52.078;11.650;2023-02-25T02:45:48;99034.66;;;1.99;100.00
14612;BME280;7392;52.078;11.650;2023-02-25T02:48:21;99036.38;;;1.93;100.00
14612;BME280;7392;52.078;11.650;2023-02-25T02:50:53;99037.25;;;1.89;100.00
14612;BME280;7392;52.078;11.650;2023-02-25T02:53:25;99038.06;;;1.81;100.00
14612;BME280;7392;52.078;11.650;2023-02-25T02:55:58;99045.91;;;1.80;100.00
14612;BME280;7392;52.078;11.650;2023-02-25T02:58:30;99046.72;;;1.74;100.00
14612;BME280;7392;52.078;11.650;2023-02-25T03:01:01;99051.97;;;1.70;100.00
14612;BME280;7392;52.078;11.650;2023-02-25T03:03:36;99055.41;;;1.65;100.00
14612;BME280;7392;52.078;11.650;2023-02-25T03:06:08;99054.53;;;1.63;100.00
14612;BME280;7392;52.078;11.650;2023-02-25T03:08:41;99060.59;;;1.58;100.00
14612;BME280;7392;52.078;11.650;2023-02-25T03:11:11;99064.03;;;1.54;100.00
14612;BME280;7392;52.078;11.650;2023-02-25T03:13:39;99064.91;;;1.51;100.00
14612;BME280;7392;52.078;11.650;2023-02-25T03:16:10;99069.25;;;1.49;100.00
14612;BME280;7392;52.078;11.650;2023-02-25T03:18:43;99084.94;;;1.47;100.00
14612;BME280;7392;52.078;11.650;2023-02-25T03:21:17;99084.06;;;1.45;100.00
14612;BME280;7392;52.078;11.650;2023-02-25T03:23:47;99076.22;;;1.45;100.00
14612;BME280;7392;52.078;11.650;2023-02-25T03:26:21;99084.06;;;1.45;100.00
14612;BME280;7392;52.078;11.650;2023-02-25T03:28:54;99091.91;;;1.44;100.00
14612;BME280;7392;52.078;11.650;2023-02-25T03:31:24;99101.47;;;1.43;100.00
14612;BME280;7392;52.078;11.650;2023-02-25T03:33:58;99096.22;;;1.43;100.00
14612;BME280;7392;52.078;11.650;2023-02-25T03:36:31;99101.47;;;1.43;100.00
14612;BME280;7392;52.078;11.650;2023-02-25T03:39:04;99104.06;;;1.43;100.00
14612;BME280;7392;52.078;11.650;2023-02-25T03:41:39;99112.81;;;1.42;100.00
14612;BME280;7392;52.078;11.650;2023-02-25T03:44:12;99104.97;;;1.42;100.00
14612;BME280;7392;52.078;11.650;2023-02-25T03:46:43;99108.44;;;1.43;100.00
14612;BME280;7392;52.078;11.650;2023-02-25T03:49:19;99118.94;;;1.44;100.00
14612;BME280;7392;52.078;11.650;2023-02-25T03:51:48;99123.31;;;1.45;100.00
14612;BME280;7392;52.078;11.650;2023-02-25T03:54:17;99118.94;;;1.46;100.00
14612;BME280;7392;52.078;11.650;2023-02-25T03:56:48;99131.16;;;1.48;100.00
14612;BME280;7392;52.078;11.650;2023-02-25T03:59:18;99131.19;;;1.52;100.00
14612;BME280;7392;52.078;11.650;2023-02-25T04:01:48;99130.34;;;1.53;100.00
14612;BME280;7392;52.078;11.650;2023-02-25T04:04:17;99139.94;;;1.55;100.00
14612;BME280;7392;52.078;11.650;2023-02-25T04:06:45;99145.19;;;1.57;100.00
14612;BME280;7392;52.078;11.650;2023-02-25T04:09:13;99146.97;;;1.58;100.00
14612;BME280;7392;52.078;11.650;2023-02-25T04:11:41;99150.47;;;1.60;100.00
14612;BME280;7392;52.078;11.650;2023-02-25T04:14:09;99146.97;;;1.59;100.00
14612;BME280;7392;52.078;11.650;2023-02-25T04:16:36;99160.06;;;1.61;100.00
14612;BME280;7392;52.078;11.650;2023-02-25T04:19:05;99156.56;;;1.60;100.00
14612;BME280;7392;52.078;11.650;2023-02-25T04:21:35;99168.78;;;1.61;100.00
14612;BME280;7392;52.078;11.650;2023-02-25T04:24:05;99165.28;;;1.59;100.00
14612;BME280;7392;52.078;11.650;2023-02-25T04:26:34;99175.81;;;1.62;100.00
14612;BME280;7392;52.078;11.650;2023-02-25T04:29:02;99170.56;;;1.62;100.00
14612;BME280;7392;52.078;11.650;2023-02-25T04:31:30;99181.91;;;1.63;100.00
14612;BME280;7392;52.078;11.650;2023-02-25T04:33:58;99179.28;;;1.63;100.00
14612;BME280;7392;52.078;11.650;2023-02-25T04:36:27;99187.13;;;1.63;100.00
14612;BME280;7392;52.078;11.650;2023-02-25T04:38:58;99184.53;;;1.63;100.00
14612;BME280;7392;52.078;11.650;2023-02-25T04:41:28;99197.59;;;1.63;100.00
14612;BME280;7392;52.078;11.650;2023-02-25T04:43:56;99192.38;;;1.63;100.00
14612;BME280;7392;52.078;11.650;2023-02-25T04:46:24;99195.84;;;1.62;100.00
14612;BME280;7392;52.078;11.650;2023-02-25T04:48:52;99201.97;;;1.62;100.00
14612;BME280;7392;52.078;11.650;2023-02-25T04:51:20;99195.84;;;1.62;100.00
14612;BME280;7392;52.078;11.650;2023-02-25T04:53:48;99193.25;;;1.63;100.00
14612;BME280;7392;52.078;11.650;2023-02-25T04:56:17;99201.06;;;1.62;100.00
14612;BME280;7392;52.078;11.650;2023-02-25T04:58:44;99191.50;;;1.61;100.00
14612;BME280;7392;52.078;11.650;2023-02-25T05:01:12;99201.97;;;1.61;100.00
14612;BME280;7392;52.078;11.650;2023-02-25T05:03:41;99208.91;;;1.60;100.00
14612;BME280;7392;52.078;11.650;2023-02-25T05:06:08;99197.56;;;1.60;100.00
14612;BME280;7392;52.078;11.650;2023-02-25T05:08:36;99194.09;;;1.59;100.00
14612;BME280;7392;52.078;11.650;2023-02-25T05:11:04;99201.94;;;1.59;100.00
14612;BME280;7392;52.078;11.650;2023-02-25T05:13:33;99205.41;;;1.60;100.00
14612;BME280;7392;52.078;11.650;2023-02-25T05:16:06;99201.06;;;1.60;100.00
14612;BME280;7392;52.078;11.650;2023-02-25T05:18:35;99207.16;;;1.58;100.00
14612;BME280;7392;52.078;11.650;2023-02-25T05:21:03;99201.91;;;1.58;100.00
14612;BME280;7392;52.078;11.650;2023-02-25T05:23:34;99206.28;;;1.57;100.00
14612;BME280;7392;52.078;11.650;2023-02-25T05:26:02;99208.91;;;1.57;100.00
14612;BME280;7392;52.078;11.650;2023-02-25T05:28:30;99206.28;;;1.57;100.00
14612;BME280;7392;52.078;11.650;2023-02-25T05:31:03;99221.09;;;1.57;100.00
14612;BME280;7392;52.078;11.650;2023-02-25T05:33:31;99229.84;;;1.57;100.00
14612;BME280;7392;52.078;11.650;2023-02-25T05:35:58;99221.97;;;1.56;100.00
14612;BME280;7392;52.078;11.650;2023-02-25T05:38:26;99221.94;;;1.54;100.00
14612;BME280;7392;52.078;11.650;2023-02-25T05:40:54;99226.28;;;1.54;100.00
14612;BME280;7392;52.078;11.650;2023-02-25T05:43:21;99228.91;;;1.54;100.00
14612;BME280;7392;52.078;11.650;2023-02-25T05:45:52;99226.28;;;1.54;100.00
14612;BME280;7392;52.078;11.650;2023-02-25T05:48:22;99235.03;;;1.53;100.00
14612;BME280;7392;52.078;11.650;2023-02-25T05:50:50;99233.25;;;1.52;100.00
14612;BME280;7392;52.078;11.650;2023-02-25T05:53:18;99231.50;;;1.51;100.00
14612;BME280;7392;52.078;11.650;2023-02-25T05:55:46;99241.97;;;1.51;100.00
14612;BME280;7392;52.078;11.650;2023-02-25T05:58:14;99239.34;;;1.49;100.00
14612;BME280;7392;52.078;11.650;2023-02-25T06:00:41;99253.28;;;1.49;100.00
14612;BME280;7392;52.078;11.650;2023-02-25T06:03:09;99243.69;;;1.48;100.00
14612;BME280;7392;52.078;11.650;2023-02-25T06:05:40;99246.28;;;1.48;100.00
14612;BME280;7392;52.078;11.650;2023-02-25T06:08:08;99251.53;;;1.48;100.00
14612;BME280;7392;52.078;11.650;2023-02-25T06:10:37;99258.50;;;1.48;100.00
14612;BME280;7392;52.078;11.650;2023-02-25T06:13:05;99262.00;;;1.47;100.00
14612;BME280;7392;52.078;11.650;2023-02-25T06:15:35;99260.25;;;1.46;100.00
14612;BME280;7392;52.078;11.650;2023-02-25T06:18:03;99282.03;;;1.46;100.00
14612;BME280;7392;52.078;11.650;2023-02-25T06:20:31;99281.19;;;1.46;100.00
14612;BME280;7392;52.078;11.650;2023-02-25T06:23:02;99291.63;;;1.44;100.00
14612;BME280;7392;52.078;11.650;2023-02-25T06:25:34;99292.47;;;1.43;100.00
14612;BME280;7392;52.078;11.650;2023-02-25T06:28:02;99306.44;;;1.44;100.00
14612;BME280;7392;52.078;11.650;2023-02-25T06:30:30;99301.22;;;1.44;100.00
14612;BME280;7392;52.078;11.650;2023-02-25T06:32:57;99312.56;;;1.44;100.00
14612;BME280;7392;52.078;11.650;2023-02-25T06:35:25;99313.41;;;1.45;100.00
14612;BME280;7392;52.078;11.650;2023-02-25T06:37:54;99328.25;;;1.44;100.00
14612;BME280;7392;52.078;11.650;2023-02-25T06:40:23;99348.31;;;1.44;100.00
14612;BME280;7392;52.078;11.650;2023-02-25T06:42:51;99349.84;;;1.29;100.00
14612;BME280;7392;52.078;11.650;2023-02-25T06:45:19;99346.16;;;1.12;100.00
14612;BME280;7392;52.078;11.650;2023-02-25T06:47:47;99333.69;;;0.96;100.00
14612;BME280;7392;52.078;11.650;2023-02-25T06:50:15;99354.50;;;0.86;100.00
14612;BME280;7392;52.078;11.650;2023-02-25T06:52:43;99355.22;;;0.76;100.00
14612;BME280;7392;52.078;11.650;2023-02-25T06:55:11;99355.13;;;0.68;100.00
14612;BME280;7392;52.078;11.650;2023-02-25T06:57:39;99367.22;;;0.65;100.00
14612;BME280;7392;52.078;11.650;2023-02-25T07:00:08;99366.31;;;0.63;100.00
14612;BME280;7392;52.078;11.650;2023-02-25T07:02:36;99367.19;;;0.62;100.00
14612;BME280;7392;52.078;11.650;2023-02-25T07:05:04;99372.41;;;0.60;100.00
14612;BME280;7392;52.078;11.650;2023-02-25T07:07:32;99377.63;;;0.60;100.00
14612;BME280;7392;52.078;11.650;2023-02-25T07:09:59;99383.75;;;0.62;100.00
14612;BME280;7392;52.078;11.650;2023-02-25T07:12:27;99387.25;;;0.64;100.00
14612;BME280;7392;52.078;11.650;2023-02-25T07:14:58;99392.50;;;0.64;100.00
14612;BME280;7392;52.078;11.650;2023-02-25T07:17:26;99389.94;;;0.67;100.00
14612;BME280;7392;52.078;11.650;2023-02-25T07:19:53;99403.88;;;0.68;100.00
14612;BME280;7392;52.078;11.650;2023-02-25T07:22:21;99395.19;;;0.69;100.00
14612;BME280;7392;52.078;11.650;2023-02-25T07:24:49;99397.81;;;0.70;100.00
14612;BME280;7392;52.078;11.650;2023-02-25T07:27:17;99397.84;;;0.72;100.00
14612;BME280;7392;52.078;11.650;2023-02-25T07:29:45;99406.59;;;0.74;100.00
14612;BME280;7392;52.078;11.650;2023-02-25T07:32:14;99403.97;;;0.74;100.00
14612;BME280;7392;52.078;11.650;2023-02-25T07:34:42;99410.97;;;0.77;100.00
14612;BME280;7392;52.078;11.650;2023-02-25T07:37:10;99407.50;;;0.76;100.00
14612;BME280;7392;52.078;11.650;2023-02-25T07:39:38;99417.97;;;0.78;100.00
14612;BME280;7392;52.078;11.650;2023-02-25T07:42:06;99420.66;;;0.81;100.00
14612;BME280;7392;52.078;11.650;2023-02-25T07:44:35;99417.13;;;0.80;100.00
14612;BME280;7392;52.078;11.650;2023-02-25T07:47:02;99431.13;;;0.82;100.00
14612;BME280;7392;52.078;11.650;2023-02-25T07:49:31;99419.81;;;0.83;100.00
14612;BME280;7392;52.078;11.650;2023-02-25T07:51:59;99433.78;;;0.85;100.00
14612;BME280;7392;52.078;11.650;2023-02-25T07:54:27;99438.16;;;0.86;100.00
14612;BME280;7392;52.078;11.650;2023-02-25T07:56:55;99431.22;;;0.88;100.00
14612;BME280;7392;52.078;11.650;2023-02-25T07:59:22;99433.00;;;0.91;100.00
14612;BME280;7392;52.078;11.650;2023-02-25T08:01:50;99440.91;;;0.94;100.00
14612;BME280;7392;52.078;11.650;2023-02-25T08:04:18;99435.66;;;0.96;100.00
14612;BME280;7392;52.078;11.650;2023-02-25T08:06:47;99460.13;;;0.98;100.00
14612;BME280;7392;52.078;11.650;2023-02-25T08:09:15;99470.63;;;1.01;100.00
14612;BME280;7392;52.078;11.650;2023-02-25T08:11:43;99468.00;;;1.01;100.00
14612;BME280;7392;52.078;11.650;2023-02-25T08:14:10;99473.25;;;1.01;100.00
14612;BME280;7392;52.078;11.650;2023-02-25T08:16:38;99474.13;;;1.01;100.00
14612;BME280;7392;52.078;11.650;2023-02-25T08:19:06;99479.34;;;1.00;100.00
14612;BME280;7392;52.078;11.650;2023-02-25T08:21:34;99483.69;;;1.01;100.00
14612;BME280;7392;52.078;11.650;2023-02-25T08:24:05;99487.25;;;1.03;100.00
14612;BME280;7392;52.078;11.650;2023-02-25T08:26:33;99488.16;;;1.05;100.00
14612;BME280;7392;52.078;11.650;2023-02-25T08:29:01;99491.63;;;1.05;100.00
14612;BME280;7392;52.078;11.650;2023-02-25T08:31:29;99489.91;;;1.07;100.00
14612;BME280;7392;52.078;11.650;2023-02-25T08:33:57;99499.53;;;1.08;100.00
14612;BME280;7392;52.078;11.650;2023-02-25T08:36:27;99496.03;;;1.08;100.00
14612;BME280;7392;52.078;11.650;2023-02-25T08:38:57;99503.84;;;1.05;100.00
14612;BME280;7392;52.078;11.650;2023-02-25T08:41:30;99502.03;;;1.02;100.00
14612;BME280;7392;52.078;11.650;2023-02-25T08:43:58;99506.38;;;1.02;100.00
14612;BME280;7392;52.078;11.650;2023-02-25T08:46:30;99502.97;;;1.04;100.00
14612;BME280;7392;52.078;11.650;2023-02-25T08:48:58;99510.00;;;1.08;100.00
14612;BME280;7392;52.078;11.650;2023-02-25T08:51:27;99507.47;;;1.13;100.00
14612;BME280;7392;52.078;11.650;2023-02-25T08:54:01;99518.81;;;1.15;100.00
14612;BME280;7392;52.078;11.650;2023-02-25T08:56:31;99513.66;;;1.18;100.00
14612;BME280;7392;52.078;11.650;2023-02-25T08:58:58;99518.91;;;1.20;100.00
14612;BME280;7392;52.078;11.650;2023-02-25T09:01:26;99515.44;;;1.22;100.00
14612;BME280;7392;52.078;11.650;2023-02-25T09:04:09;99528.56;;;1.24;100.00
14612;BME280;7392;52.078;11.650;2023-02-25T09:06:40;99531.16;;;1.24;100.00
14612;BME280;7392;52.078;11.650;2023-02-25T09:09:08;99537.25;;;1.23;100.00
14612;BME280;7392;52.078;11.650;2023-02-25T09:11:38;99532.88;;;1.22;100.00
14612;BME280;7392;52.078;11.650;2023-02-25T09:14:06;99538.13;;;1.22;100.00
14612;BME280;7392;52.078;11.650;2023-02-25T09:16:34;99538.97;;;1.21;100.00
14612;BME280;7392;52.078;11.650;2023-02-25T09:19:02;99550.28;;;1.21;100.00
14612;BME280;7392;52.078;11.650;2023-02-25T09:21:31;99549.47;;;1.24;100.00
14612;BME280;7392;52.078;11.650;2023-02-25T09:23:59;99551.28;;;1.28;100.00
14612;BME280;7392;52.078;11.650;2023-02-25T09:26:26;99550.44;;;1.29;100.00
14612;BME280;7392;52.078;11.650;2023-02-25T09:28:58;99555.69;;;1.30;100.00
14612;BME280;7392;52.078;11.650;2023-02-25T09:31:26;99553.09;;;1.32;100.00
14612;BME280;7392;52.078;11.650;2023-02-25T09:33:54;99554.81;;;1.30;100.00
14612;BME280;7392;52.078;11.650;2023-02-25T09:36:22;99560.94;;;1.30;100.00
14612;BME280;7392;52.078;11.650;2023-02-25T09:38:50;99560.09;;;1.33;100.00
14612;BME280;7392;52.078;11.650;2023-02-25T09:41:25;99569.72;;;1.36;100.00
14612;BME280;7392;52.078;11.650;2023-02-25T09:44:02;99574.13;;;1.38;100.00
14612;BME280;7392;52.078;11.650;2023-02-25T09:46:38;99574.22;;;1.44;100.00
14612;BME280;7392;52.078;11.650;2023-02-25T09:49:11;99575.22;;;1.51;100.00
14612;BME280;7392;52.078;11.650;2023-02-25T09:51:44;99587.44;;;1.54;100.00
14612;BME280;7392;52.078;11.650;2023-02-25T09:54:19;99588.44;;;1.60;100.00
14612;BME280;7392;52.078;11.650;2023-02-25T09:56:48;99590.25;;;1.64;100.00
14612;BME280;7392;52.078;11.650;2023-02-25T09:59:18;99591.25;;;1.73;100.00
14612;BME280;7392;52.078;11.650;2023-02-25T10:01:50;99593.13;;;1.81;100.00
14612;BME280;7392;52.078;11.650;2023-02-25T10:04:24;99597.56;;;1.87;100.00
14612;BME280;7392;52.078;11.650;2023-02-25T10:06:56;99601.97;;;1.91;100.00
14612;BME280;7392;52.078;11.650;2023-02-25T10:09:33;99609.91;;;1.96;100.00
14612;BME280;7392;52.078;11.650;2023-02-25T10:12:07;99613.47;;;2.01;100.00
14612;BME280;7392;52.078;11.650;2023-02-25T10:15:01;99610.84;;;1.99;100.00
14612;BME280;7392;52.078;11.650;2023-02-25T10:17:37;99620.47;;;2.00;100.00
14612;BME280;7392;52.078;11.650;2023-02-25T10:20:23;99625.78;;;2.05;100.00
14612;BME280;7392;52.078;11.650;2023-02-25T10:23:09;99617.09;;;2.09;100.00
14612;BME280;7392;52.078;11.650;2023-02-25T10:25:43;99626.75;;;2.10;100.00
14612;BME280;7392;52.078;11.650;2023-02-25T10:28:15;99631.13;;;2.13;100.00
14612;BME280;7392;52.078;11.650;2023-02-25T10:30:48;99629.44;;;2.18;100.00
14612;BME280;7392;52.078;11.650;2023-02-25T10:33:21;99634.72;;;2.19;100.00
14612;BME280;7392;52.078;11.650;2023-02-25T10:35:53;99636.47;;;2.20;100.00
14612;BME280;7392;52.078;11.650;2023-02-25T10:38:23;99650.50;;;2.24;100.00
14612;BME280;7392;52.078;11.650;2023-02-25T10:40:54;99645.31;;;2.29;100.00
14612;BME280;7392;52.078;11.650;2023-02-25T10:43:24;99655.78;;;2.29;100.00
14612;BME280;7392;52.078;11.650;2023-02-25T10:45:59;99648.84;;;2.31;100.00
14612;BME280;7392;52.078;11.650;2023-02-25T10:48:28;99660.22;;;2.33;100.00
14612;BME280;7392;52.078;11.650;2023-02-25T10:51:03;99657.59;;;2.31;100.00
14612;BME280;7392;52.078;11.650;2023-02-25T10:53:32;99654.03;;;2.26;100.00
14612;BME280;7392;52.078;11.650;2023-02-25T10:56:00;99664.50;;;2.26;100.00
14612;BME280;7392;52.078;11.650;2023-02-25T10:58:38;99668.91;;;2.30;100.00
14612;BME280;7392;52.078;11.650;2023-02-25T11:01:12;99659.38;;;2.35;100.00
14612;BME280;7392;52.078;11.650;2023-02-25T11:03:52;99662.09;;;2.41;100.00
14612;BME280;7392;52.078;11.650;2023-02-25T11:06:23;99657.84;;;2.50;100.00
14612;BME280;7392;52.078;11.650;2023-02-25T11:08:53;99661.47;;;2.61;100.00
14612;BME280;7392;52.078;11.650;2023-02-25T11:11:23;99665.94;;;2.68;100.00
14612;BME280;7392;52.078;11.650;2023-02-25T11:13:54;99668.69;;;2.77;100.00
14612;BME280;7392;52.078;11.650;2023-02-25T11:16:23;99672.28;;;2.86;100.00
14612;BME280;7392;52.078;11.650;2023-02-25T11:18:54;99663.59;;;2.91;100.00
14612;BME280;7392;52.078;11.650;2023-02-25T11:21:35;99674.97;;;2.93;100.00
14612;BME280;7392;52.078;11.650;2023-02-25T11:24:09;99667.97;;;2.91;100.00
14612;BME280;7392;52.078;11.650;2023-02-25T11:26:42;99688.88;;;2.86;100.00
14612;BME280;7392;52.078;11.650;2023-02-25T11:29:13;99679.16;;;2.77;100.00
14612;BME280;7392;52.078;11.650;2023-02-25T11:31:46;99688.75;;;2.74;100.00
14612;BME280;7392;52.078;11.650;2023-02-25T11:34:19;99696.66;;;2.80;100.00
14612;BME280;7392;52.078;11.650;2023-02-25T11:36:47;99688.88;;;2.85;100.00
14612;BME280;7392;52.078;11.650;2023-02-25T11:39:19;99698.59;;;2.93;100.00
14612;BME280;7392;52.078;11.650;2023-02-25T11:41:49;99696.09;;;3.03;100.00
14612;BME280;7392;52.078;11.650;2023-02-25T11:44:23;99695.28;;;3.10;100.00
14612;BME280;7392;52.078;11.650;2023-02-25T11:47:06;99695.34;;;3.14;100.00
14612;BME280;7392;52.078;11.650;2023-02-25T11:49:58;99704.09;;;3.15;100.00
14612;BME280;7392;52.078;11.650;2023-02-25T11:52:36;99703.22;;;3.17;100.00
14612;BME280;7392;52.078;11.650;2023-02-25T11:55:16;99709.38;;;3.18;100.00
14612;BME280;7392;52.078;11.650;2023-02-25T11:57:54;99716.34;;;3.17;100.00
14612;BME280;7392;52.078;11.650;2023-02-25T12:00:34;99732.06;;;3.13;100.00
14612;BME280;7392;52.078;11.650;2023-02-25T12:03:30;99738.91;;;3.02;100.00
14612;BME280;7392;52.078;11.650;2023-02-25T12:06:18;99730.81;;;2.85;100.00
14612;BME280;7392;52.078;11.650;2023-02-25T12:09:16;99730.59;;;2.68;100.00
14612;BME280;7392;52.078;11.650;2023-02-25T12:12:14;99742.75;;;2.61;100.00
14612;BME280;7392;52.078;11.650;2023-02-25T12:15:10;99746.22;;;2.58;100.00
14612;BME280;7392;52.078;11.650;2023-02-25T12:18:16;99744.38;;;2.51;100.00
14612;BME280;7392;52.078;11.650;2023-02-25T12:24:07;99753.97;;;2.52;100.00
14612;BME280;7392;52.078;11.650;2023-02-25T12:29:55;99764.53;;;2.57;100.00
14612;BME280;7392;52.078;11.650;2023-02-25T12:32:37;99768.06;;;2.59;100.00
14612;BME280;7392;52.078;11.650;2023-02-25T12:35:27;99767.28;;;2.66;100.00
14612;BME280;7392;52.078;11.650;2023-02-25T12:41:14;99804.78;;;2.60;100.00
14612;BME280;7392;52.078;11.650;2023-02-25T12:43:47;99797.63;;;2.49;100.00
14612;BME280;7392;52.078;11.650;2023-02-25T12:46:25;99803.47;;;2.32;100.00
14612;BME280;7392;52.078;11.650;2023-02-25T12:49:16;99804.94;;;2.15;100.00
14612;BME280;7392;52.078;11.650;2023-02-25T12:52:16;99800.31;;;1.98;100.00
14612;BME280;7392;52.078;11.650;2023-02-25T12:55:07;99800.13;;;1.89;100.00
14612;BME280;7392;52.078;11.650;2023-02-25T12:57:45;99810.50;;;1.83;100.00
14612;BME280;7392;52.078;11.650;2023-02-25T13:00:44;99803.47;;;1.80;100.00
14612;BME280;7392;52.078;11.650;2023-02-25T13:03:24;99810.41;;;1.78;100.00
14612;BME280;7392;52.078;11.650;2023-02-25T13:06:17;99810.28;;;1.72;100.00
14612;BME280;7392;52.078;11.650;2023-02-25T13:09:18;99805.81;;;1.66;100.00
14612;BME280;7392;52.078;11.650;2023-02-25T13:12:02;99816.19;;;1.62;100.00
14612;BME280;7392;52.078;11.650;2023-02-25T13:14:53;99803.09;;;1.62;100.00
14612;BME280;7392;52.078;11.650;2023-02-25T13:17:33;99818.84;;;1.63;100.00
14612;BME280;7392;52.078;11.650;2023-02-25T13:20:35;99814.56;;;1.67;100.00
14612;BME280;7392;52.078;11.650;2023-02-25T13:23:24;99805.06;;;1.74;100.00
14612;BME280;7392;52.078;11.650;2023-02-25T13:26:16;99812.41;;;1.92;100.00
14612;BME280;7392;52.078;11.650;2023-02-25T13:28:59;99812.09;;;2.25;100.00
14612;BME280;7392;52.078;11.650;2023-02-25T13:31:38;99809.78;;;2.43;100.00
14612;BME280;7392;52.078;11.650;2023-02-25T13:34:14;99816.88;;;2.51;100.00
14612;BME280;7392;52.078;11.650;2023-02-25T13:36:56;99817.81;;;2.56;100.00